Time;durP1;ratioP1;P1;durP2;ratioP2;P2;SDS_P1;SDS_P2;PMS_P1;PMS_P2;Temp;Humidity;BMP_temperature;BMP_pressure;BME280_temperature;BME280_humidity;BME280_pressure;Samples;Min_cycle;Max_cycle;Signal;HPM_P1;HPM_P2
2021/12/17 00:00:17;;;;;;;240.30;67.80;;;8.60;99.90;;;;;;5016917;28;20056;-77
2021/12/17 00:03:19;;;;;;;205.02;61.90;;;8.60;99.90;;;;;;5018051;28;20025;-78
2021/12/17 00:08:25;;;;;;;214.30;62.72;;;8.60;99.90;;;;;;5091920;28;20381;-67
2021/12/17 00:10:51;;;;;;;211.68;66.75;;;8.60;99.90;;;;;;5072971;28;20036;-68
2021/12/17 00:13:18;;;;;;;221.65;67.05;;;8.60;99.90;;;;;;5072879;28;20032;-68
2021/12/17 00:15:44;;;;;;;224.05;69.10;;;8.60;99.90;;;;;;5089703;28;20020;-68
2021/12/17 00:18:17;;;;;;;217.98;63.10;;;8.70;99.90;;;;;;5091414;28;20070;-67
2021/12/17 00:40:08;;;;;;;218.48;66.15;;;8.60;99.90;;;;;;5089589;28;20116;-67
2021/12/17 00:40:28;;;;;;;214.65;65.13;;;8.60;99.90;;;;;;5090374;28;20055;-67
2021/12/17 00:48:24;;;;;;;215.23;61.22;;;8.60;99.90;;;;;;5090080;28;20028;-67
2021/12/17 00:53:36;;;;;;;188.40;57.35;;;8.60;99.90;;;;;;5090108;28;20062;-67
2021/12/17 00:56:02;;;;;;;255.60;66.25;;;8.60;99.90;;;;;;5072305;28;20112;-68
2021/12/17 00:58:27;;;;;;;303.42;75.30;;;8.60;99.90;;;;;;5090701;28;20032;-67
2021/12/17 01:00:53;;;;;;;287.65;77.05;;;8.60;99.90;;;;;;5089200;28;20024;-67
2021/12/17 01:03:18;;;;;;;259.88;72.65;;;8.60;99.90;;;;;;5088779;28;20074;-67
2021/12/17 01:05:44;;;;;;;286.50;72.80;;;8.60;99.90;;;;;;5089374;28;20517;-67
2021/12/17 01:08:10;;;;;;;257.15;70.20;;;8.60;99.90;;;;;;5089747;28;20421;-68
2021/12/17 01:10:43;;;;;;;248.35;68.88;;;8.60;99.90;;;;;;5089291;28;20031;-67
2021/12/17 01:13:10;;;;;;;258.40;70.75;;;8.60;99.90;;;;;;5090414;28;20059;-67
2021/12/17 01:15:39;;;;;;;274.67;71.60;;;8.70;99.90;;;;;;5089377;28;20028;-67
2021/12/17 01:18:11;;;;;;;309.33;77.07;;;8.60;99.90;;;;;;5085818;28;20029;-67
2021/12/17 01:23:40;;;;;;;308.30;79.32;;;8.70;99.90;;;;;;5075032;28;20025;-67
2021/12/17 01:36:52;;;;;;;389.33;88.45;;;8.70;99.90;;;;;;5075775;28;20513;-67
2021/12/17 01:40:26;;;;;;;454.95;91.97;;;8.70;99.90;;;;;;5058700;28;20060;-67
2021/12/17 01:42:05;;;;;;;385.98;92.75;;;8.70;99.90;;;;;;5075703;28;20493;-67
2021/12/17 01:44:35;;;;;;;480.42;98.78;;;8.70;99.90;;;;;;5075223;28;20020;-67
2021/12/17 01:47:01;;;;;;;432.25;96.00;;;8.60;99.90;;;;;;5058105;28;20048;-67
2021/12/17 02:00:35;;;;;;;407.45;95.30;;;8.70;99.90;;;;;;5071724;28;20888;-68
2021/12/17 02:03:03;;;;;;;346.40;85.13;;;8.60;99.90;;;;;;5071339;28;20115;-68
2021/12/17 02:05:29;;;;;;;391.05;91.50;;;8.70;99.90;;;;;;5053025;28;20397;-68
2021/12/17 02:07:57;;;;;;;408.77;93.32;;;8.60;99.90;;;;;;5071292;28;20020;-67
2021/12/17 02:21:51;;;;;;;372.92;85.47;;;8.70;99.90;;;;;;5070357;28;20025;-67
2021/12/17 02:30:02;;;;;;;338.23;84.15;;;8.60;99.90;;;;;;5069073;28;20458;-67
2021/12/17 02:32:31;;;;;;;334.98;84.80;;;8.60;99.90;;;;;;5070287;28;20024;-67
2021/12/17 02:35:22;;;;;;;332.02;85.35;;;8.60;99.90;;;;;;5068937;28;20024;-67
2021/12/17 02:37:45;;;;;;;305.23;82.07;;;8.60;99.90;;;;;;5069015;28;20382;-68
2021/12/17 02:45:37;;;;;;;300.75;76.82;;;8.60;99.90;;;;;;5091918;28;20344;-68
2021/12/17 02:48:07;;;;;;;290.50;75.93;;;8.60;99.90;;;;;;5090139;28;20081;-67
2021/12/17 02:50:36;;;;;;;276.50;69.85;;;8.60;99.90;;;;;;5091270;28;20044;-67
2021/12/17 02:53:07;;;;;;;267.60;68.47;;;8.60;99.90;;;;;;5090395;28;20477;-67
2021/12/17 02:55:34;;;;;;;273.45;70.28;;;8.60;99.90;;;;;;5091465;28;20048;-67
2021/12/17 02:58:00;;;;;;;231.10;65.13;;;8.60;99.90;;;;;;5089949;28;20024;-67
2021/12/17 03:00:25;;;;;;;213.82;60.90;;;8.60;99.90;;;;;;5072802;28;20492;-67
2021/12/17 03:02:54;;;;;;;235.77;63.95;;;8.60;99.90;;;;;;5091010;28;20029;-67
2021/12/17 03:05:19;;;;;;;234.45;63.35;;;8.60;99.90;;;;;;5089939;28;20024;-67
2021/12/17 03:07:47;;;;;;;212.52;61.10;;;8.60;99.90;;;;;;5089778;28;20055;-67
2021/12/17 03:10:15;;;;;;;212.32;62.63;;;8.50;99.90;;;;;;5089718;28;20020;-67
2021/12/17 03:12:46;;;;;;;222.20;59.80;;;8.50;99.90;;;;;;5089314;28;20017;-67
2021/12/17 03:15:39;;;;;;;226.60;57.40;;;8.50;99.90;;;;;;5089244;28;20020;-67
2021/12/17 03:23:42;;;;;;;181.63;54.42;;;8.50;99.90;;;;;;5110291;28;20092;-67
2021/12/17 03:26:11;;;;;;;174.52;52.30;;;8.50;99.90;;;;;;5110557;28;20016;-67
2021/12/17 03:28:39;;;;;;;184.52;51.45;;;8.50;99.90;;;;;;5110449;28;20059;-68
2021/12/17 03:31:06;;;;;;;192.43;54.17;;;8.50;99.90;;;;;;5110009;28;20031;-68
2021/12/17 03:33:32;;;;;;;197.35;54.85;;;8.50;99.90;;;;;;5110335;28;20377;-67
2021/12/17 03:35:58;;;;;;;183.80;55.33;;;8.50;99.90;;;;;;5110272;28;20047;-67
2021/12/17 03:38:24;;;;;;;179.75;53.05;;;8.50;99.90;;;;;;5111375;28;20074;-68
2021/12/17 03:40:58;;;;;;;186.55;55.30;;;8.50;99.90;;;;;;5109799;28;20465;-68
2021/12/17 03:43:30;;;;;;;202.05;56.63;;;8.50;99.90;;;;;;5093952;28;20028;-68
2021/12/17 03:45:56;;;;;;;202.00;57.40;;;8.50;99.90;;;;;;5111547;28;20102;-67
2021/12/17 03:48:22;;;;;;;204.13;60.17;;;8.40;99.90;;;;;;5092684;28;20024;-68
2021/12/17 03:50:47;;;;;;;211.13;61.22;;;8.50;99.90;;;;;;5109969;28;20419;-68
2021/12/17 03:53:13;;;;;;;191.75;56.22;;;8.40;99.90;;;;;;5109668;28;20028;-68
2021/12/17 03:55:38;;;;;;;194.32;55.53;;;8.50;99.90;;;;;;5109492;28;20020;-68
2021/12/17 03:58:04;;;;;;;206.13;59.97;;;8.40;99.90;;;;;;5109485;28;20496;-68
2021/12/17 04:00:30;;;;;;;218.85;59.60;;;8.50;99.90;;;;;;5109352;28;20034;-68
2021/12/17 04:02:56;;;;;;;211.02;60.40;;;8.50;99.90;;;;;;5111224;28;20020;-68
2021/12/17 04:05:22;;;;;;;211.88;61.65;;;8.50;99.90;;;;;;5092461;28;20024;-68
2021/12/17 04:07:48;;;;;;;202.60;61.28;;;8.50;99.90;;;;;;5109307;28;20024;-68
2021/12/17 04:10:14;;;;;;;200.63;58.92;;;8.50;99.90;;;;;;5109380;28;20085;-68
2021/12/17 04:12:53;;;;;;;230.20;63.03;;;8.50;99.90;;;;;;5109327;28;20082;-68
2021/12/17 04:15:29;;;;;;;207.07;62.20;;;8.50;99.90;;;;;;5109967;28;20376;-68
2021/12/17 04:17:57;;;;;;;218.43;63.75;;;8.50;99.90;;;;;;5093471;28;20024;-68
2021/12/17 04:20:22;;;;;;;234.55;63.10;;;8.40;99.90;;;;;;5108785;28;20493;-68
2021/12/17 04:22:48;;;;;;;212.38;62.75;;;8.40;99.90;;;;;;5092072;28;20020;-68
2021/12/17 04:25:13;;;;;;;207.52;62.75;;;8.40;99.90;;;;;;5108937;28;20042;-68
2021/12/17 04:27:39;;;;;;;232.68;63.13;;;8.40;99.90;;;;;;5092488;28;20133;-68
2021/12/17 04:30:05;;;;;;;221.93;62.78;;;8.40;99.90;;;;;;5108626;28;20376;-68
2021/12/17 04:32:31;;;;;;;199.32;61.13;;;8.40;99.90;;;;;;5095754;28;20020;-68
2021/12/17 04:34:57;;;;;;;193.20;59.55;;;8.40;99.90;;;;;;5078350;28;20024;-73
2021/12/17 04:37:22;;;;;;;212.68;60.33;;;8.50;99.90;;;;;;5095130;28;20028;-72
2021/12/17 04:39:48;;;;;;;202.20;57.50;;;8.50;99.90;;;;;;5095421;28;20035;-73
2021/12/17 04:42:20;;;;;;;214.18;58.83;;;8.40;99.90;;;;;;5095457;28;20016;-72
2021/12/17 04:44:53;;;;;;;189.98;58.70;;;8.40;99.90;;;;;;5095042;28;20035;-72
2021/12/17 04:57:19;;;;;;;199.23;59.58;;;8.40;99.90;;;;;;5095396;28;20095;-72
2021/12/17 04:58:21;;;;;;;166.75;56.05;;;8.40;99.90;;;;;;5095796;28;20027;-73
2021/12/17 05:00:46;;;;;;;170.40;55.55;;;8.40;99.90;;;;;;5095358;28;20415;-74
2021/12/17 05:03:13;;;;;;;169.05;55.25;;;8.50;99.90;;;;;;5077789;28;20035;-73
2021/12/17 05:05:38;;;;;;;159.43;53.75;;;8.40;99.90;;;;;;5095012;28;20376;-73
2021/12/17 05:08:09;;;;;;;159.50;52.47;;;8.40;99.90;;;;;;5094917;28;20107;-73
2021/12/17 05:18:46;;;;;;;158.48;50.45;;;8.50;99.90;;;;;;5095247;28;20431;-67
2021/12/17 05:21:12;;;;;;;162.80;53.17;;;8.40;99.90;;;;;;5078905;28;20383;-67
2021/12/17 05:23:42;;;;;;;194.25;54.30;;;8.40;99.90;;;;;;5094289;28;20107;-67
2021/12/17 05:26:11;;;;;;;200.02;55.10;;;8.40;99.90;;;;;;5094616;28;20103;-67
2021/12/17 05:28:37;;;;;;;189.85;54.75;;;8.40;99.90;;;;;;5077334;28;20066;-67
2021/12/17 05:31:03;;;;;;;159.77;53.97;;;8.40;99.90;;;;;;5077263;28;20048;-67
2021/12/17 05:33:28;;;;;;;177.38;55.85;;;8.40;99.90;;;;;;5077251;28;20473;-67
2021/12/17 05:35:54;;;;;;;157.88;52.75;;;8.40;99.90;;;;;;5095578;28;20031;-67
2021/12/17 05:38:22;;;;;;;168.02;53.35;;;8.40;99.90;;;;;;5093975;28;20111;-67
2021/12/17 05:40:48;;;;;;;181.20;55.88;;;8.40;99.90;;;;;;5077174;28;20066;-67
2021/12/17 05:43:15;;;;;;;192.65;55.90;;;8.40;99.90;;;;;;5094414;28;20450;-67
2021/12/17 05:48:11;;;;;;;201.18;57.20;;;8.40;99.90;;;;;;5094155;28;20020;-67
2021/12/17 05:50:39;;;;;;;232.20;58.72;;;8.40;99.90;;;;;;5094387;28;20107;-67
2021/12/17 05:53:06;;;;;;;220.40;58.30;;;8.30;99.90;;;;;;5095235;28;20028;-67
2021/12/17 05:55:33;;;;;;;214.23;59.63;;;8.30;99.90;;;;;;5095450;28;20062;-68
2021/12/17 05:57:59;;;;;;;260.95;62.38;;;8.30;99.90;;;;;;5093590;28;20032;-68
2021/12/17 06:00:25;;;;;;;225.38;58.00;;;8.20;99.90;;;;;;5095286;28;20448;-67
2021/12/17 06:02:51;;;;;;;216.95;60.78;;;8.20;99.90;;;;;;5094406;28;20048;-67
2021/12/17 06:05:17;;;;;;;198.45;56.95;;;8.20;99.90;;;;;;5094165;28;20016;-68
2021/12/17 06:07:43;;;;;;;208.25;58.30;;;8.20;99.90;;;;;;5077086;28;20457;-67
2021/12/17 06:10:09;;;;;;;199.75;57.88;;;8.20;99.90;;;;;;5094862;28;20024;-67
2021/12/17 06:12:37;;;;;;;265.63;62.10;;;8.20;99.90;;;;;;5094903;28;20024;-67
2021/12/17 06:15:05;;;;;;;200.48;56.83;;;8.20;99.90;;;;;;5093897;28;20081;-67
2021/12/17 06:17:32;;;;;;;227.88;57.30;;;8.20;99.90;;;;;;5093875;28;20125;-67
2021/12/17 06:19:58;;;;;;;190.52;54.70;;;8.20;99.90;;;;;;5092990;28;20044;-67
2021/12/17 06:22:24;;;;;;;172.40;54.53;;;8.30;99.90;;;;;;5076687;28;20028;-67
2021/12/17 06:24:49;;;;;;;182.90;54.20;;;8.30;99.90;;;;;;5094447;28;20487;-67
2021/12/17 06:27:17;;;;;;;189.18;54.67;;;8.30;99.90;;;;;;5094292;28;20491;-67
2021/12/17 06:29:44;;;;;;;175.25;51.88;;;8.30;99.90;;;;;;5077140;28;20164;-67
2021/12/17 06:32:09;;;;;;;206.43;55.42;;;8.30;99.90;;;;;;5093321;28;20020;-67
2021/12/17 06:34:36;;;;;;;190.13;53.60;;;8.30;99.90;;;;;;5094684;28;20028;-67
2021/12/17 06:37:02;;;;;;;179.35;54.20;;;8.30;99.90;;;;;;5093265;28;20432;-67
2021/12/17 06:39:28;;;;;;;185.43;53.03;;;8.30;99.90;;;;;;5076027;28;20035;-67
2021/12/17 06:41:53;;;;;;;174.32;53.60;;;8.30;99.90;;;;;;5094320;28;20016;-67
2021/12/17 06:44:23;;;;;;;181.35;54.60;;;8.30;99.90;;;;;;5076446;28;20024;-68
2021/12/17 06:46:58;;;;;;;188.18;53.05;;;8.30;99.90;;;;;;5076418;28;20024;-68
2021/12/17 06:55:18;;;;;;;131.65;43.25;;;8.30;99.90;;;;;;5069695;28;20098;-67
2021/12/17 07:06:03;;;;;;;123.78;36.17;;;8.30;99.90;;;;;;5124168;28;20098;-67
2021/12/17 07:17:13;;;;;;;89.00;28.80;;;8.30;99.90;;;;;;5111188;28;20039;-67
2021/12/17 07:20:31;;;;;;;87.82;28.98;;;8.30;99.90;;;;;;5110166;28;20031;-67
2021/12/17 07:22:43;;;;;;;72.60;26.92;;;8.30;99.90;;;;;;5110044;28;20051;-67
2021/12/17 07:28:12;;;;;;;71.55;24.63;;;8.30;99.90;;;;;;5112099;27;20354;-67
2021/12/17 07:33:22;;;;;;;80.80;26.45;;;8.30;99.90;;;;;;5107807;28;20012;-68
2021/12/17 07:35:53;;;;;;;74.18;25.70;;;8.30;99.90;;;;;;5109895;28;20045;-68
2021/12/17 07:41:11;;;;;;;69.72;25.05;;;8.30;99.90;;;;;;5071496;28;20730;-67
2021/12/17 07:43:38;;;;;;;74.97;23.70;;;8.30;99.90;;;;;;5066182;28;20082;-67
2021/12/17 07:46:09;;;;;;;76.22;25.20;;;8.20;99.90;;;;;;5045417;28;20470;-67
2021/12/17 07:48:37;;;;;;;69.10;24.38;;;8.30;99.90;;;;;;5047888;28;20056;-66
2021/12/17 07:51:06;;;;;;;65.50;22.45;;;8.30;99.90;;;;;;5048819;28;20034;-67
2021/12/17 07:53:32;;;;;;;61.15;23.02;;;8.30;99.90;;;;;;5065489;28;20492;-67
2021/12/17 07:56:00;;;;;;;70.55;22.90;;;8.30;99.90;;;;;;5047839;28;20120;-67
2021/12/17 07:58:26;;;;;;;66.40;23.08;;;8.30;99.90;;;;;;5062023;28;20029;-66
2021/12/17 08:00:52;;;;;;;60.45;22.70;;;8.30;99.90;;;;;;5068760;28;20033;-66
2021/12/17 08:03:17;;;;;;;59.55;23.05;;;8.30;99.90;;;;;;5067559;28;20449;-67
2021/12/17 08:05:43;;;;;;;67.55;24.35;;;8.30;99.90;;;;;;5068634;28;20086;-66
2021/12/17 08:08:10;;;;;;;67.20;25.38;;;8.30;99.90;;;;;;5068735;28;20028;-66
2021/12/17 08:10:35;;;;;;;75.75;25.90;;;8.20;99.90;;;;;;5073464;28;20033;-67
2021/12/17 08:13:01;;;;;;;72.60;26.27;;;8.20;99.90;;;;;;5047529;28;20025;-66
2021/12/17 08:15:34;;;;;;;68.88;25.27;;;8.20;99.90;;;;;;5055110;28;20500;-66
2021/12/17 08:18:34;;;;;;;71.00;26.45;;;8.20;99.90;;;;;;5085936;28;20032;-67
2021/12/17 08:24:07;;;;;;;51.42;19.33;;;8.20;99.90;;;;;;5067523;28;20389;-67
2021/12/17 08:31:34;;;;;;;39.30;16.27;;;8.20;99.90;;;;;;5077876;28;20031;-67
2021/12/17 08:34:02;;;;;;;45.35;17.85;;;8.20;99.90;;;;;;5071826;28;20032;-68
2021/12/17 08:36:28;;;;;;;38.45;16.35;;;8.10;99.90;;;;;;5076702;28;20024;-69
2021/12/17 08:38:54;;;;;;;41.53;17.17;;;8.20;99.90;;;;;;5068678;28;20466;-68
2021/12/17 08:41:21;;;;;;;40.00;16.42;;;8.10;99.90;;;;;;5077657;28;20028;-68
2021/12/17 08:43:47;;;;;;;36.13;15.90;;;8.20;99.90;;;;;;5070463;28;20016;-68
2021/12/17 08:46:13;;;;;;;40.22;15.77;;;8.20;99.90;;;;;;5072192;28;20025;-68
2021/12/17 08:48:39;;;;;;;35.38;16.17;;;8.20;99.90;;;;;;5069697;28;20106;-68
2021/12/17 08:51:06;;;;;;;39.00;16.40;;;8.30;99.90;;;;;;5061858;28;20489;-68
2021/12/17 08:53:32;;;;;;;33.60;15.23;;;8.30;99.90;;;;;;5054273;28;20383;-68
2021/12/17 08:55:58;;;;;;;34.90;15.25;;;8.30;99.90;;;;;;5060677;28;20382;-68
2021/12/17 08:58:24;;;;;;;34.08;15.63;;;8.40;99.90;;;;;;5056420;28;20255;-68
2021/12/17 09:00:49;;;;;;;28.27;13.73;;;8.40;99.90;;;;;;5055720;28;20055;-69
2021/12/17 09:03:15;;;;;;;31.83;15.20;;;8.50;99.90;;;;;;5051432;28;20058;-69
2021/12/17 09:05:45;;;;;;;36.15;15.48;;;8.50;99.90;;;;;;5063050;28;20021;-69
2021/12/17 09:08:11;;;;;;;33.28;15.00;;;8.50;99.90;;;;;;5020440;28;20147;-69
2021/12/17 09:10:38;;;;;;;30.23;15.30;;;8.60;99.90;;;;;;5053216;28;20033;-69
2021/12/17 09:13:05;;;;;;;29.13;15.13;;;8.60;99.90;;;;;;5053240;28;20021;-69
2021/12/17 09:15:31;;;;;;;28.92;14.93;;;8.60;99.90;;;;;;5054483;28;20025;-69
2021/12/17 09:17:56;;;;;;;33.63;15.52;;;8.60;99.90;;;;;;5053267;28;20043;-69
2021/12/17 09:20:23;;;;;;;29.35;15.07;;;8.70;99.90;;;;;;5054093;28;20031;-69
2021/12/17 09:22:48;;;;;;;27.92;14.88;;;8.70;99.90;;;;;;5053237;28;20067;-68
2021/12/17 09:25:14;;;;;;;27.58;14.73;;;8.70;99.90;;;;;;5054321;28;20021;-69
2021/12/17 09:27:41;;;;;;;24.17;13.50;;;8.70;99.90;;;;;;5053072;28;20052;-69
2021/12/17 09:30:11;;;;;;;28.60;15.38;;;8.70;99.90;;;;;;5052866;28;20480;-68
2021/12/17 09:32:39;;;;;;;25.48;13.23;;;8.80;99.90;;;;;;5053010;28;20021;-69
2021/12/17 09:35:06;;;;;;;20.85;12.90;;;8.90;99.90;;;;;;5054071;28;20470;-69
2021/12/17 09:37:31;;;;;;;27.60;14.00;;;9.00;99.90;;;;;;5036130;28;20495;-69
2021/12/17 09:39:57;;;;;;;22.40;12.88;;;9.10;99.90;;;;;;5052023;28;20124;-69
2021/12/17 09:42:23;;;;;;;27.95;13.55;;;9.10;99.90;;;;;;5054000;28;20386;-69
2021/12/17 09:44:48;;;;;;;23.13;12.88;;;9.10;99.90;;;;;;5047999;28;20418;-69
2021/12/17 09:47:14;;;;;;;20.13;12.25;;;9.10;99.90;;;;;;5034032;28;20017;-69
2021/12/17 09:49:39;;;;;;;20.90;11.55;;;9.00;99.90;;;;;;5045516;28;20048;-68
2021/12/17 09:52:05;;;;;;;20.38;10.70;;;9.00;99.90;;;;;;5054143;28;20467;-70
2021/12/17 09:54:31;;;;;;;18.02;9.13;;;8.90;99.90;;;;;;5053837;28;20555;-70
2021/12/17 09:56:56;;;;;;;19.55;10.48;;;8.90;99.90;;;;;;5048693;28;20085;-67
2021/12/17 09:59:22;;;;;;;16.58;8.77;;;8.80;99.90;;;;;;5043019;28;20033;-71
2021/12/17 10:01:48;;;;;;;17.52;8.98;;;8.70;99.90;;;;;;5052455;28;20497;-73
2021/12/17 10:04:21;;;;;;;18.20;8.77;;;8.70;99.90;;;;;;5031476;28;20067;-73
2021/12/17 10:06:49;;;;;;;15.65;8.18;;;8.70;99.90;;;;;;5033588;28;20018;-73
2021/12/17 10:09:16;;;;;;;15.50;8.07;;;8.80;99.90;;;;;;5032305;28;20479;-73
2021/12/17 10:12:03;;;;;;;18.02;8.52;;;8.80;99.90;;;;;;5052794;28;20149;-73
2021/12/17 10:14:30;;;;;;;20.75;9.05;;;8.80;99.90;;;;;;5072161;28;20025;-73
2021/12/17 10:17:13;;;;;;;15.25;7.78;;;8.80;99.90;;;;;;5054338;28;20079;-73
2021/12/17 10:19:42;;;;;;;16.30;8.52;;;8.90;99.90;;;;;;5034320;28;20025;-73
2021/12/17 10:22:09;;;;;;;16.25;8.25;;;8.80;99.90;;;;;;5033345;28;20104;-73
2021/12/17 10:24:36;;;;;;;19.85;9.02;;;8.80;99.90;;;;;;5015475;28;20024;-73
2021/12/17 10:27:18;;;;;;;16.10;8.18;;;8.70;99.90;;;;;;5015940;28;20013;-73
2021/12/17 10:29:43;;;;;;;17.48;8.23;;;8.70;99.90;;;;;;5033329;28;20437;-73
2021/12/17 10:32:16;;;;;;;17.60;8.85;;;8.80;99.90;;;;;;5033550;28;20029;-74
2021/12/17 10:34:59;;;;;;;17.25;8.40;;;8.80;99.90;;;;;;5060358;28;20027;-73
2021/12/17 10:37:37;;;;;;;19.13;9.97;;;8.90;99.90;;;;;;5046996;28;20029;-74
2021/12/17 10:40:28;;;;;;;17.17;8.73;;;8.90;99.90;;;;;;5033154;28;20726;-73
2021/12/17 10:43:04;;;;;;;14.90;7.43;;;8.90;99.90;;;;;;5066242;28;20053;-73
2021/12/17 10:45:38;;;;;;;12.45;6.82;;;8.90;99.90;;;;;;5051587;28;20386;-73
2021/12/17 10:51:56;;;;;;;8.98;4.32;;;8.90;99.90;;;;;;5067614;28;20032;-73
2021/12/17 10:54:08;;;;;;;6.80;3.95;;;8.90;99.90;;;;;;5068516;28;20032;-73
2021/12/17 10:56:38;;;;;;;10.65;4.80;;;8.90;99.90;;;;;;5031064;28;20079;-74
2021/12/17 10:59:09;;;;;;;10.35;6.38;;;9.10;99.90;;;;;;5050450;28;20032;-73
2021/12/17 11:01:45;;;;;;;11.15;5.82;;;9.10;99.90;;;;;;5051237;28;20032;-73
2021/12/17 11:04:33;;;;;;;9.45;5.93;;;9.00;99.90;;;;;;5053447;28;20028;-73
2021/12/17 11:07:02;;;;;;;14.93;7.20;;;9.00;99.90;;;;;;5052432;28;20082;-73
2021/12/17 11:12:46;;;;;;;14.77;8.00;;;9.00;99.90;;;;;;5091675;27;20453;-73
2021/12/17 11:15:30;;;;;;;13.02;7.63;;;9.00;99.90;;;;;;5106488;28;20032;-73
2021/12/17 11:17:59;;;;;;;15.93;8.90;;;9.00;99.90;;;;;;5096418;28;20359;-73
2021/12/17 11:20:35;;;;;;;14.23;8.93;;;9.00;99.90;;;;;;5067881;28;20158;-73
2021/12/17 11:23:06;;;;;;;13.63;8.65;;;9.00;99.90;;;;;;5074948;28;20123;-73
2021/12/17 11:25:34;;;;;;;16.80;8.52;;;9.00;99.90;;;;;;5085030;28;20029;-74
2021/12/17 11:28:00;;;;;;;13.10;8.00;;;8.90;99.90;;;;;;5083608;28;20028;-73
2021/12/17 11:30:29;;;;;;;13.52;8.25;;;9.00;99.90;;;;;;5098620;28;20039;-73
2021/12/17 11:32:56;;;;;;;13.57;7.88;;;9.00;99.90;;;;;;5089213;28;20230;-73
2021/12/17 11:35:24;;;;;;;12.13;6.30;;;9.00;99.90;;;;;;5087978;28;20025;-73
2021/12/17 11:37:53;;;;;;;7.97;5.32;;;9.00;99.90;;;;;;5086781;28;20096;-73
2021/12/17 11:40:25;;;;;;;7.22;3.88;;;9.00;99.90;;;;;;5069103;28;20024;-73
2021/12/17 11:43:14;;;;;;;6.57;4.65;;;8.90;99.90;;;;;;5096309;28;20029;-73
2021/12/17 11:45:40;;;;;;;6.38;4.22;;;8.90;99.90;;;;;;5083905;28;20032;-73
2021/12/17 11:48:21;;;;;;;5.20;3.65;;;9.10;99.90;;;;;;5082190;28;20366;-73
2021/12/17 11:51:06;;;;;;;8.07;4.22;;;9.10;99.90;;;;;;5089860;28;20028;-73
2021/12/17 11:53:33;;;;;;;6.25;4.13;;;9.10;99.90;;;;;;5073291;28;20060;-73
2021/12/17 11:56:02;;;;;;;5.68;3.85;;;9.10;99.90;;;;;;5093354;28;20448;-73
2021/12/17 11:58:50;;;;;;;7.60;4.22;;;9.10;99.90;;;;;;5071645;28;20024;-73
2021/12/17 12:01:57;;;;;;;9.40;5.80;;;9.10;99.90;;;;;;5074164;28;20037;-74
2021/12/17 12:10:21;;;;;;;12.68;6.82;;;9.10;99.90;;;;;;5112782;27;20772;-73
2021/12/17 12:15:28;;;;;;;13.63;7.65;;;9.10;99.90;;;;;;5099268;27;20331;-73
2021/12/17 12:26:33;;;;;;;12.82;7.30;;;9.10;99.90;;;;;;5089635;28;20356;-74
2021/12/17 12:29:05;;;;;;;13.70;6.68;;;9.20;99.90;;;;;;5070038;28;20025;-74
2021/12/17 12:34:12;;;;;;;13.15;7.43;;;9.30;99.90;;;;;;5109425;27;20299;-73
2021/12/17 12:37:01;;;;;;;9.10;6.47;;;9.30;99.90;;;;;;5085495;28;20032;-73
2021/12/17 12:39:37;;;;;;;13.27;7.28;;;9.20;99.90;;;;;;5121324;28;20031;-73
2021/12/17 12:42:12;;;;;;;14.60;7.53;;;9.10;99.90;;;;;;5089607;28;20025;-73
2021/12/17 12:50:07;;;;;;;15.02;7.95;;;9.10;99.90;;;;;;5088649;27;1838740;-73
2021/12/17 12:52:39;;;;;;;12.77;7.68;;;9.20;99.90;;;;;;5122814;28;20031;-73
2021/12/17 12:55:17;;;;;;;12.88;8.02;;;9.30;99.90;;;;;;5096460;28;20396;-73
2021/12/17 12:57:50;;;;;;;14.55;8.30;;;9.30;99.90;;;;;;5111596;28;20392;-74
2021/12/17 13:00:38;;;;;;;15.07;8.07;;;9.20;99.90;;;;;;5123166;28;20020;-73
2021/12/17 13:03:14;;;;;;;16.08;8.63;;;9.20;99.90;;;;;;5093977;28;20441;-73
2021/12/17 13:05:41;;;;;;;16.15;9.73;;;9.20;99.90;;;;;;5104251;28;20433;-73
2021/12/17 13:08:08;;;;;;;16.92;8.80;;;9.20;99.90;;;;;;5102987;28;20069;-73
2021/12/17 13:10:37;;;;;;;15.27;8.85;;;9.20;99.90;;;;;;5085851;28;20027;-73
2021/12/17 13:13:30;;;;;;;17.73;10.02;;;9.20;99.90;;;;;;5104590;28;20498;-73
2021/12/17 13:21:18;;;;;;;16.17;8.88;;;9.00;99.90;;;;;;5118329;28;20038;-73
2021/12/17 13:23:53;;;;;;;13.50;8.43;;;9.00;99.90;;;;;;5110545;28;20110;-72
2021/12/17 13:26:23;;;;;;;14.32;8.63;;;9.00;99.90;;;;;;5091222;28;20027;-73
2021/12/17 13:29:13;;;;;;;17.80;8.85;;;9.00;99.90;;;;;;5091086;28;20116;-73
2021/12/17 13:31:43;;;;;;;14.40;8.23;;;9.00;99.90;;;;;;5109197;28;20020;-74
2021/12/17 13:36:56;;;;;;;15.38;8.57;;;9.00;99.90;;;;;;5102575;27;1131175;-73
2021/12/17 13:39:24;;;;;;;14.48;7.82;;;9.00;99.90;;;;;;5130174;28;20049;-73
2021/12/17 13:41:50;;;;;;;13.00;7.32;;;9.00;99.90;;;;;;5129255;28;20024;-68
2021/12/17 13:44:38;;;;;;;12.60;7.13;;;9.00;99.90;;;;;;5130447;28;20020;-68
2021/12/17 13:47:12;;;;;;;12.60;7.45;;;9.00;99.90;;;;;;5123070;28;20028;-68
2021/12/17 13:49:41;;;;;;;13.38;7.72;;;9.10;99.90;;;;;;5117563;28;20028;-68
2021/12/17 13:52:09;;;;;;;13.38;7.40;;;9.00;99.90;;;;;;5122292;28;20472;-68
2021/12/17 13:54:35;;;;;;;14.00;7.82;;;9.00;99.90;;;;;;5111921;28;20035;-67
2021/12/17 13:57:04;;;;;;;14.95;8.52;;;9.00;99.90;;;;;;5117842;28;20027;-68
2021/12/17 13:59:33;;;;;;;14.85;8.63;;;9.00;99.90;;;;;;5104572;28;20051;-68
2021/12/17 14:02:06;;;;;;;14.77;8.18;;;9.00;99.90;;;;;;5130399;28;20134;-68
2021/12/17 14:04:32;;;;;;;12.25;7.55;;;9.00;99.90;;;;;;5130789;28;20079;-68
2021/12/17 14:07:04;;;;;;;16.67;8.73;;;9.00;99.90;;;;;;5113067;28;20411;-68
2021/12/17 14:09:30;;;;;;;14.70;8.25;;;8.90;99.90;;;;;;5131798;28;20023;-67
2021/12/17 14:11:57;;;;;;;16.92;9.40;;;8.90;99.90;;;;;;5131746;28;20030;-67
2021/12/17 14:14:25;;;;;;;13.55;8.52;;;8.80;99.90;;;;;;5113055;28;20103;-69
2021/12/17 14:17:00;;;;;;;17.13;8.98;;;8.90;99.90;;;;;;5130167;28;20030;-68
2021/12/17 14:19:46;;;;;;;14.98;8.95;;;8.90;99.90;;;;;;5130133;28;20110;-67
2021/12/17 14:22:33;;;;;;;15.52;8.90;;;8.90;99.90;;;;;;5124502;27;20039;-67
2021/12/17 14:25:00;;;;;;;16.48;8.48;;;8.80;99.90;;;;;;5127018;28;20024;-68
2021/12/17 14:27:46;;;;;;;11.70;7.80;;;8.80;99.90;;;;;;5127919;28;20030;-67
2021/12/17 14:30:12;;;;;;;14.98;7.80;;;8.70;99.90;;;;;;5112567;27;20031;-68
2021/12/17 14:32:41;;;;;;;12.95;7.00;;;8.70;99.90;;;;;;5109116;28;20544;-67
2021/12/17 14:35:07;;;;;;;14.60;7.70;;;8.70;99.90;;;;;;5110271;28;20047;-67
2021/12/17 14:37:47;;;;;;;12.85;8.02;;;8.60;99.90;;;;;;5109147;28;20107;-67
2021/12/17 14:40:37;;;;;;;20.95;9.25;;;8.60;99.90;;;;;;5092422;28;20020;-67
2021/12/17 14:43:16;;;;;;;15.75;8.63;;;8.60;99.90;;;;;;5110139;28;20020;-67
2021/12/17 14:45:51;;;;;;;15.05;8.02;;;8.60;99.90;;;;;;5109446;28;20416;-67
2021/12/17 14:48:22;;;;;;;12.35;7.50;;;8.60;99.90;;;;;;5077806;28;20084;-67
2021/12/17 15:02:25;;;;;;;16.50;7.95;;;8.40;99.90;;;;;;5116170;28;20059;-68
2021/12/17 15:04:51;;;;;;;13.43;7.53;;;8.50;99.90;;;;;;5094859;28;20024;-68
2021/12/17 15:07:19;;;;;;;17.58;8.43;;;8.40;99.90;;;;;;5096638;28;20024;-68
2021/12/17 15:09:46;;;;;;;13.77;8.13;;;8.40;99.90;;;;;;5095773;28;20058;-68
2021/12/17 15:12:36;;;;;;;15.80;7.78;;;8.40;99.90;;;;;;5107050;28;20024;-68
2021/12/17 15:15:04;;;;;;;14.60;9.07;;;8.40;99.90;;;;;;5110359;28;20035;-67
2021/12/17 15:17:29;;;;;;;16.67;8.10;;;8.40;99.90;;;;;;5103118;28;20066;-68
2021/12/17 15:19:55;;;;;;;17.88;8.77;;;8.30;99.90;;;;;;5102507;28;20028;-68
2021/12/17 15:22:21;;;;;;;12.80;7.53;;;8.30;99.90;;;;;;5094936;28;20435;-67
2021/12/17 15:24:46;;;;;;;15.77;7.57;;;8.30;99.90;;;;;;5105217;28;20036;-68
2021/12/17 15:27:13;;;;;;;17.48;8.73;;;8.30;99.90;;;;;;5114726;28;20023;-68
2021/12/17 15:29:39;;;;;;;15.35;8.50;;;8.20;99.90;;;;;;5087932;28;20397;-67
2021/12/17 15:32:05;;;;;;;17.25;8.27;;;8.20;99.90;;;;;;5100052;28;20029;-68
2021/12/17 15:34:31;;;;;;;22.95;10.55;;;8.20;99.90;;;;;;5113267;28;20034;-68
2021/12/17 15:36:58;;;;;;;20.95;9.43;;;8.10;99.90;;;;;;5111066;28;20443;-68
2021/12/17 15:39:26;;;;;;;16.23;8.90;;;8.10;99.90;;;;;;5115255;28;20023;-68
2021/12/17 15:41:53;;;;;;;17.58;9.82;;;8.10;99.90;;;;;;5100079;28;20059;-68
2021/12/17 15:44:18;;;;;;;18.40;9.70;;;8.10;99.90;;;;;;5079419;28;20061;-68
2021/12/17 15:46:44;;;;;;;15.50;8.95;;;8.10;99.90;;;;;;5096160;28;20032;-68
2021/12/17 15:49:10;;;;;;;16.02;9.50;;;8.10;99.90;;;;;;5078367;28;20469;-67
2021/12/17 15:51:36;;;;;;;17.08;9.25;;;8.10;99.90;;;;;;5095040;28;20066;-68
2021/12/17 15:54:03;;;;;;;14.68;8.77;;;8.10;99.90;;;;;;5095274;28;20024;-68
2021/12/17 15:56:31;;;;;;;17.63;8.70;;;8.00;99.90;;;;;;5093825;28;20495;-68
2021/12/17 15:58:57;;;;;;;16.17;8.68;;;8.00;99.90;;;;;;5092823;28;20024;-68
2021/12/17 16:01:22;;;;;;;15.45;8.88;;;8.00;99.90;;;;;;5077170;28;20107;-68